Seaside, Oregon
Current Conditions -  °F | °C
As of 1:55 PM on Monday 26 Jan 2015 (Local Time) from KAST Reporting Station
Clear Clear  
Wind Chill: 57°   Ceiling: Unl
Heat Index: 57°   Visibility: 8mi
Dew Point: 50°   Wind: 14mph
Humidity: 77%   Direction: 220°SW
Pressure: 29.93"   Gusts: 24mph
Location:  45.99°N, 123.91°W
Report Text: KAST 262155Z AUTO 22012G21KT 8SM CLR 14/10 A2993 RMK AO2 SLP134 T01390100
Loading
Personal Weather Stations






























Interactive Weather Map New forecast layout! Learn more

10-Day Weather Forecast

Advertisements
Track Severe Weather on mobile